Weather at Falcon Point Heliport

Public forecast

Using degrees Fahrenheit for public forecast. Weather courtesy of forecast.io.

Closest aviation weather report (METAR) to Falcon Point Heliport

Closest report is Aurora State Airport, 7.0 nm (12.9 km) SW. Retrieved 2021/06/21 08:53 UTC (50 minutes ago):

KUAO 210853Z AUTO 01009KT 10SM CLR 22/13 A2982 RMK AO2 SLP096 T02220128 53001

Closest aviation forecast (TAF) to Falcon Point Heliport

Closest forecast is Aurora State Airport, 7.0 nm (12.9 km) SW. Retrieved 2021/06/21 06:20 UTC (3 hours ago):

TAF KUAO 210520Z 2106/2206 36007KT P6SM SKC FM210800 05004KT P6SM SKC FM212200 33005KT P6SM SKC